TimeCDT,TemperatureF,Dew PointF,Humidity,Sea Level PressureIn,VisibilityMPH,Wind Direction,Wind SpeedMPH,Gust SpeedMPH,PrecipitationIn,Events,Conditions,WindDirDegrees,DateUTC
12:51 AM,64.9,46.0,50,29.90,10.0,NE,4.6,-,N/A,,Clear,40,2013-09-24 05:51:00
1:51 AM,63.0,46.9,56,29.92,10.0,NNE,4.6,-,N/A,,Clear,30,2013-09-24 06:51:00
2:51 AM,63.0,46.9,56,29.94,10.0,Calm,Calm,-,N/A,,Partly Cloudy,0,2013-09-24 07:51:00
3:51 AM,61.0,46.9,60,29.94,10.0,Calm,Calm,-,N/A,,Clear,0,2013-09-24 08:51:00
4:51 AM,59.0,46.9,64,29.96,10.0,Calm,Calm,-,N/A,,Clear,0,2013-09-24 09:51:00
5:51 AM,57.0,46.9,69,29.97,10.0,WSW,4.6,-,N/A,,Clear,250,2013-09-24 10:51:00
6:51 AM,55.9,46.9,72,30.00,10.0,West,3.5,-,N/A,,Clear,260,2013-09-24 11:51:00
7:51 AM,54.0,46.9,77,30.03,10.0,WSW,5.8,-,N/A,,Clear,250,2013-09-24 12:51:00
8:51 AM,57.0,48.0,72,30.04,10.0,Calm,Calm,-,N/A,,Clear,0,2013-09-24 13:51:00
9:51 AM,63.0,48.0,58,30.05,10.0,WNW,3.5,-,N/A,,Clear,300,2013-09-24 14:51:00
10:51 AM,69.1,46.9,45,30.05,10.0,Calm,Calm,-,N/A,,Clear,0,2013-09-24 15:51:00
11:51 AM,73.0,46.0,38,30.04,10.0,Variable,4.6,-,N/A,,Clear,0,2013-09-24 16:51:00
12:51 PM,77.0,46.0,33,30.02,10.0,Variable,3.5,-,N/A,,Clear,0,2013-09-24 17:51:00
1:51 PM,80.1,39.0,23,29.99,10.0,North,5.8,-,N/A,,Clear,350,2013-09-24 18:51:00
2:51 PM,82.0,39.9,22,29.96,10.0,Variable,4.6,-,N/A,,Clear,0,2013-09-24 19:51:00
3:51 PM,81.0,37.9,21,29.95,10.0,Variable,4.6,-,N/A,,Clear,0,2013-09-24 20:51:00
4:51 PM,82.0,37.9,21,29.93,10.0,Calm,Calm,-,N/A,,Clear,0,2013-09-24 21:51:00
5:51 PM,82.0,37.9,21,29.92,10.0,Variable,4.6,-,N/A,,Clear,0,2013-09-24 22:51:00
6:51 PM,82.0,41.0,23,29.91,10.0,West,4.6,-,N/A,,Clear,260,2013-09-24 23:51:00
7:51 PM,79.0,39.9,25,29.91,10.0,Calm,Calm,-,N/A,,Clear,0,2013-09-25 00:51:00
8:51 PM,77.0,39.9,26,29.91,10.0,SE,10.4,16.1,N/A,,Clear,140,2013-09-25 01:51:00
9:51 PM,73.0,41.0,31,29.92,10.0,SE,9.2,-,N/A,,Clear,140,2013-09-25 02:51:00
10:51 PM,72.0,42.1,34,29.91,10.0,SSE,8.1,-,N/A,,Clear,150,2013-09-25 03:51:00
11:51 PM,70.0,41.0,35,29.89,10.0,SSE,8.1,-,N/A,,Clear,150,2013-09-25 04:51:00